createdAt,value
2023-01-23T00:00:59.135Z,14.13
2023-01-23T00:08:36.450Z,13.25
2023-01-23T00:16:12.381Z,12.63
2023-01-23T00:23:49.325Z,13.02
2023-01-23T00:31:25.706Z,12.80
2023-01-23T00:39:01.583Z,13.43
2023-01-23T00:46:35.524Z,12.68
2023-01-23T00:54:11.017Z,11.93
2023-01-23T01:01:45.274Z,12.52
2023-01-23T01:09:20.504Z,12.25
2023-01-23T01:16:54.482Z,12.02
2023-01-23T01:24:29.660Z,13.18
2023-01-23T01:32:03.518Z,14.40
2023-01-23T01:39:38.737Z,11.48
2023-01-23T01:47:16.031Z,13.15
2023-01-23T01:54:54.883Z,12.50
2023-01-23T02:02:32.913Z,12.90
2023-01-23T02:10:11.070Z,13.13
2023-01-23T02:17:46.348Z,12.70
2023-01-23T02:25:31.587Z,12.80
2023-01-23T02:33:11.229Z,12.07
2023-01-23T02:40:45.034Z,11.88
2023-01-23T02:48:20.222Z,13.63
2023-01-23T02:55:54.040Z,12.77
2023-01-23T03:03:30.591Z,13.63
2023-01-23T03:11:05.680Z,14.77
2023-01-23T03:18:53.558Z,13.45
2023-01-23T03:26:28.365Z,14.35
2023-01-23T03:34:03.872Z,12.93
2023-01-23T03:41:39.168Z,13.88
2023-01-23T03:49:14.411Z,15.55
2023-01-23T03:56:48.334Z,15.25
2023-01-23T04:04:23.476Z,17.52
2023-01-23T04:11:58.811Z,14.90
2023-01-23T04:19:34.270Z,14.93
2023-01-23T04:27:08.041Z,16.13
2023-01-23T04:34:43.297Z,15.97
2023-01-23T04:42:17.044Z,16.55
2023-01-23T04:49:52.283Z,14.43
2023-01-23T04:57:26.099Z,14.15
2023-01-23T05:05:01.260Z,14.60
2023-01-23T05:12:35.592Z,15.73
2023-01-23T05:27:45.518Z,16.50
2023-01-23T05:35:20.748Z,15.90
2023-01-23T05:42:54.612Z,15.25
2023-01-23T05:50:29.785Z,15.07
2023-01-23T05:58:03.592Z,13.25
2023-01-23T06:05:38.719Z,16.17
2023-01-23T06:13:13.724Z,14.60
2023-01-23T06:20:48.946Z,15.20
2023-01-23T06:28:22.746Z,15.70
2023-01-23T06:36:00.367Z,15.20
2023-01-23T06:43:34.137Z,15.43
2023-01-23T06:51:09.752Z,15.07
2023-01-23T06:58:46.133Z,15.38
2023-01-23T07:06:21.356Z,15.75
2023-01-23T07:13:56.452Z,15.50
2023-01-23T07:21:31.763Z,16.98
2023-01-23T07:29:08.990Z,16.35
2023-01-23T07:36:44.176Z,16.50
2023-01-23T07:44:20.607Z,16.50
2023-01-23T07:51:55.841Z,15.52
2023-01-23T07:59:30.921Z,16.13
2023-01-23T08:07:06.796Z,15.68
2023-01-23T08:14:41.691Z,15.52
2023-01-23T08:22:16.890Z,15.38
2023-01-23T08:29:50.715Z,16.70
2023-01-23T08:37:26.060Z,16.57
2023-01-23T08:44:59.933Z,17.48
2023-01-23T08:52:35.384Z,16.80
2023-01-23T09:00:11.569Z,16.48
2023-01-23T09:07:46.813Z,16.05
2023-01-23T09:15:21.791Z,15.20
2023-01-23T09:22:56.978Z,15.80
2023-01-23T09:30:30.903Z,16.30
2023-01-23T09:38:07.871Z,15.32
2023-01-23T09:45:45.301Z,15.80
2023-01-23T09:53:24.412Z,17.15
2023-01-23T10:00:59.282Z,16.40
2023-01-23T10:08:45.060Z,16.50
2023-01-23T10:16:49.172Z,18.80
2023-01-23T10:24:40.892Z,17.42
2023-01-23T10:32:24.427Z,14.98
2023-01-23T10:40:04.095Z,17.50
2023-01-23T10:47:44.053Z,18.35
2023-01-23T10:55:31.573Z,14.88
2023-01-23T11:03:28.966Z,16.27
2023-01-23T11:11:25.220Z,14.98
2023-01-23T11:19:13.563Z,14.70
2023-01-23T11:26:59.008Z,15.40
2023-01-23T11:34:39.525Z,18.05
2023-01-23T11:42:18.471Z,15.80
2023-01-23T11:50:12.981Z,17.60
2023-01-23T11:58:02.647Z,17.60
2023-01-23T12:06:19.229Z,16.73
2023-01-23T12:14:01.380Z,17.52
2023-01-23T12:21:47.465Z,15.52
2023-01-23T12:29:46.072Z,15.73
2023-01-23T12:37:40.722Z,16.33
2023-01-23T12:45:24.037Z,17.97
2023-01-23T12:53:04.603Z,18.10
2023-01-23T13:00:50.660Z,17.38
2023-01-23T13:08:32.384Z,16.13
2023-01-23T13:16:14.832Z,15.13
2023-01-23T13:24:09.233Z,13.60
2023-01-23T13:31:47.773Z,12.60
2023-01-23T13:39:29.450Z,11.82
2023-01-23T14:27:29.514Z,9.90
2023-01-23T14:35:17.688Z,10.10
2023-01-23T14:42:57.851Z,11.57
2023-01-23T14:50:33.733Z,9.77
2023-01-23T14:58:08.792Z,9.75
2023-01-23T15:05:59.530Z,8.80
2023-01-23T15:13:41.131Z,8.73
2023-01-23T15:21:26.764Z,9.82
2023-01-23T15:29:03.922Z,9.68
2023-01-23T15:36:39.572Z,10.57
2023-01-23T15:44:15.503Z,9.70
2023-01-23T15:51:50.951Z,9.75
2023-01-23T15:59:24.822Z,9.30
2023-01-23T16:07:06.114Z,9.77
2023-01-23T16:14:40.551Z,10.82
2023-01-23T16:29:53.150Z,9.43
2023-01-23T16:37:29.975Z,8.05
2023-01-23T16:45:04.118Z,8.77
2023-01-23T16:52:39.776Z,9.45
2023-01-23T17:00:24.906Z,9.32
2023-01-23T17:08:17.359Z,9.18
2023-01-23T17:15:54.119Z,10.63
2023-01-23T17:23:29.385Z,8.80
2023-01-23T17:31:05.166Z,9.85
2023-01-23T17:38:42.233Z,9.38
2023-01-23T17:46:23.007Z,8.75
2023-01-23T17:53:58.963Z,8.48
2023-01-23T18:01:32.826Z,9.38
2023-01-23T18:09:08.226Z,8.90
2023-01-23T18:16:45.280Z,9.88
2023-01-23T18:24:28.344Z,9.57
2023-01-23T18:32:24.493Z,9.50
2023-01-23T18:40:10.539Z,9.38
2023-01-23T18:47:44.539Z,9.90
2023-01-23T18:55:30.041Z,10.48
2023-01-23T19:03:13.826Z,9.40
2023-01-23T19:10:50.461Z,10.40
2023-01-23T19:18:46.711Z,8.55
2023-01-23T19:26:23.132Z,10.55
2023-01-23T19:33:57.943Z,9.85
2023-01-23T19:41:41.363Z,10.35
2023-01-23T19:49:15.320Z,8.85
2023-01-23T19:56:50.750Z,10.87
2023-01-23T20:04:25.312Z,10.35
2023-01-23T20:12:00.513Z,8.23
2023-01-23T20:19:34.310Z,9.02
2023-01-23T20:27:09.470Z,9.07
2023-01-23T20:34:43.667Z,8.48
2023-01-23T20:42:18.822Z,9.80
2023-01-23T20:49:52.737Z,8.77
2023-01-23T20:57:48.042Z,8.98
2023-01-23T21:05:22.144Z,10.07
2023-01-23T21:12:57.821Z,9.48
2023-01-23T21:20:31.733Z,9.45
2023-01-23T21:28:07.083Z,8.45
2023-01-23T21:35:41.161Z,7.18
2023-01-23T21:43:16.494Z,9.68
2023-01-23T21:50:50.322Z,7.85
2023-01-23T21:58:25.640Z,8.27
2023-01-23T22:05:59.645Z,8.70
2023-01-23T22:13:35.644Z,8.77
2023-01-23T22:21:10.087Z,8.50
2023-01-23T22:36:22.956Z,10.02
2023-01-23T22:43:59.518Z,9.38
2023-01-23T22:51:33.564Z,9.80
2023-01-23T22:59:08.704Z,9.98
2023-01-23T23:06:42.527Z,9.68
2023-01-23T23:14:17.699Z,9.52
2023-01-23T23:21:51.569Z,11.27
2023-01-23T23:29:26.837Z,9.98
2023-01-23T23:37:01.666Z,9.75
2023-01-23T23:44:36.832Z,10.73
2023-01-23T23:52:10.610Z,8.48
2023-01-23T23:59:45.893Z,10.60
